logo
Search for airport 
image banner adimage banner adimage banner ad
image banner ad

CFP6 - La Biche River

Located in , Canada

ICAO - CFP6, IATA -

Data provided by Airmate  

General information

Coordinates: N60°7'45" W124°2'55"
Elevation is 1356 feet MSL.
Magnetic variation is 18.9256° East
View others Airports in Yukon Territory

Operational data

Special qualification required
Current time UTC:
Current local time:
Weather at : CYJF - Fort Liard ( 34 km )
METAR: CYJF 152100Z 22008G17KT 200V280 15SM SKC 30/13 A2968 RMK SLP050 DENSITY ALT 2900FT
View NOTAMs / SUP AIP / TFR affecting this airport [VIEW]
Communications frequencies: [VIEW]

Runways:

RWY identifierQFULength (ft)Width (ft)SurfaceLDA (ft)
143000100GRASS
323000100GRASS

Airport contact information

Address: Canada

Satellite view of CFP6